createdAt,value
2019-01-15T00:00:53.830Z,3.41
2019-01-15T00:01:53.790Z,3.42
2019-01-15T00:02:53.756Z,3.53
2019-01-15T00:03:53.715Z,3.40
2019-01-15T00:04:53.676Z,3.28
2019-01-15T00:05:53.633Z,3.44
2019-01-15T00:06:53.607Z,3.42
2019-01-15T00:07:53.560Z,3.37
2019-01-15T00:08:53.519Z,3.28
2019-01-15T00:09:53.480Z,3.34
2019-01-15T00:10:53.438Z,3.29
2019-01-15T00:11:53.405Z,3.26
2019-01-15T00:12:53.360Z,3.28
2019-01-15T00:13:53.329Z,3.29
2019-01-15T00:14:53.291Z,3.26
2019-01-15T00:16:00.916Z,3.28
2019-01-15T00:16:53.199Z,3.22
2019-01-15T00:17:53.173Z,3.23
2019-01-15T00:18:53.140Z,3.29
2019-01-15T00:19:53.093Z,3.32
2019-01-15T00:20:53.052Z,3.21
2019-01-15T00:21:53.016Z,3.25
2019-01-15T00:22:52.972Z,3.32
2019-01-15T00:23:52.938Z,3.31
2019-01-15T00:24:52.896Z,3.31
2019-01-15T00:25:52.868Z,3.40
2019-01-15T00:26:52.811Z,3.36
2019-01-15T00:27:52.793Z,3.36
2019-01-15T00:28:52.746Z,3.40
2019-01-15T00:29:52.698Z,3.34
2019-01-15T00:30:52.667Z,3.29
2019-01-15T00:31:52.624Z,3.41
2019-01-15T00:32:52.593Z,3.29
2019-01-15T00:33:52.558Z,3.31
2019-01-15T00:34:52.507Z,3.32
2019-01-15T00:35:52.467Z,3.41
2019-01-15T00:36:52.445Z,3.42
2019-01-15T00:37:52.392Z,3.34
2019-01-15T00:38:52.363Z,3.44
2019-01-15T00:39:52.329Z,3.41
2019-01-15T00:40:52.287Z,3.32
2019-01-15T00:41:52.244Z,3.37
2019-01-15T00:42:52.207Z,3.36
2019-01-15T00:43:52.173Z,3.28
2019-01-15T00:44:52.124Z,3.40
2019-01-15T00:45:52.085Z,3.25
2019-01-15T00:46:52.048Z,3.41
2019-01-15T00:47:52.014Z,3.32
2019-01-15T00:48:51.974Z,3.31
2019-01-15T00:49:51.933Z,3.37
2019-01-15T00:50:51.893Z,3.37
2019-01-15T00:51:51.864Z,3.37
2019-01-15T00:52:51.819Z,3.42
2019-01-15T00:53:51.792Z,3.26
2019-01-15T00:54:51.748Z,3.36
2019-01-15T00:55:51.703Z,3.40
2019-01-15T00:56:51.669Z,3.28
2019-01-15T00:57:51.623Z,3.28
2019-01-15T00:58:51.608Z,3.37
2019-01-15T00:59:51.545Z,3.36
2019-01-15T01:00:51.518Z,3.36
2019-01-15T01:01:51.469Z,3.28
2019-01-15T01:02:51.438Z,3.42
2019-01-15T01:03:51.394Z,3.42
2019-01-15T01:04:51.358Z,3.50
2019-01-15T01:05:51.318Z,3.55
2019-01-15T01:06:51.279Z,3.40
2019-01-15T01:07:51.234Z,3.44
2019-01-15T01:08:51.203Z,3.41
2019-01-15T01:09:51.175Z,3.47
2019-01-15T01:10:51.134Z,3.44
2019-01-15T01:11:51.085Z,3.55
2019-01-15T01:12:51.041Z,3.48
2019-01-15T01:13:51.021Z,3.53
2019-01-15T01:14:50.966Z,3.56
2019-01-15T01:15:50.936Z,3.60
2019-01-15T01:16:50.891Z,3.48
2019-01-15T01:17:50.856Z,3.48
2019-01-15T01:18:50.810Z,3.53
2019-01-15T01:19:50.785Z,3.47
2019-01-15T01:20:50.741Z,3.59
2019-01-15T01:21:50.701Z,3.60
2019-01-15T01:22:50.657Z,3.51
2019-01-15T01:23:50.624Z,3.59
2019-01-15T01:24:50.590Z,3.50
2019-01-15T01:25:50.543Z,3.55
2019-01-15T01:26:50.507Z,3.48
2019-01-15T01:27:50.470Z,3.59
2019-01-15T01:28:50.434Z,3.60
2019-01-15T01:29:50.391Z,3.60
2019-01-15T01:30:50.359Z,3.56
2019-01-15T01:31:50.311Z,3.60
2019-01-15T01:32:50.291Z,3.60
2019-01-15T01:33:50.235Z,3.56
2019-01-15T01:34:50.207Z,3.53
2019-01-15T01:35:50.165Z,3.62
2019-01-15T01:36:50.116Z,3.58
2019-01-15T01:37:50.102Z,3.51
2019-01-15T01:38:50.060Z,3.58
2019-01-15T01:39:50.008Z,3.55
2019-01-15T01:40:49.971Z,3.74
2019-01-15T01:41:49.932Z,3.68
2019-01-15T01:42:49.892Z,3.58
2019-01-15T01:43:49.850Z,3.65
2019-01-15T01:44:49.815Z,3.68
2019-01-15T01:45:49.771Z,3.77
2019-01-15T01:46:49.747Z,3.81
2019-01-15T01:47:49.695Z,3.87
2019-01-15T01:48:49.663Z,3.84
2019-01-15T01:49:49.630Z,3.91
2019-01-15T01:50:49.592Z,3.86
2019-01-15T01:51:49.546Z,3.86
2019-01-15T01:52:49.513Z,3.86
2019-01-15T01:53:49.483Z,3.91
2019-01-15T01:54:49.436Z,3.86
2019-01-15T01:55:49.396Z,3.91
2019-01-15T01:56:49.357Z,3.96
2019-01-15T01:57:49.315Z,3.96
2019-01-15T01:58:49.291Z,3.94
2019-01-15T01:59:49.243Z,3.95
2019-01-15T02:00:49.203Z,3.94
2019-01-15T02:01:49.163Z,4.04
2019-01-15T02:02:49.132Z,3.99
2019-01-15T02:03:49.086Z,3.96
2019-01-15T02:04:49.061Z,4.01
2019-01-15T02:05:49.029Z,4.13
2019-01-15T02:06:48.966Z,4.13
2019-01-15T02:07:48.937Z,4.22
2019-01-15T02:08:48.897Z,4.16
2019-01-15T02:09:48.862Z,4.17
2019-01-15T02:10:48.814Z,4.19
2019-01-15T02:11:48.789Z,4.22
2019-01-15T02:12:48.744Z,4.17
2019-01-15T02:13:48.707Z,4.14
2019-01-15T02:14:48.659Z,4.19
2019-01-15T02:15:48.633Z,4.17
2019-01-15T02:16:48.593Z,4.22
2019-01-15T02:17:48.552Z,4.32
2019-01-15T02:18:48.512Z,4.28
2019-01-15T02:19:48.482Z,4.28
2019-01-15T02:20:48.440Z,4.31
2019-01-15T02:21:48.402Z,4.28
2019-01-15T02:22:48.362Z,4.34
2019-01-15T02:23:48.329Z,4.34
2019-01-15T02:24:48.284Z,4.28
2019-01-15T02:25:48.259Z,4.30
2019-01-15T02:26:48.212Z,4.37
2019-01-15T02:27:48.181Z,4.35
2019-01-15T02:28:48.147Z,4.35
2019-01-15T02:29:48.094Z,4.34
2019-01-15T02:30:48.062Z,4.41
2019-01-15T02:31:48.022Z,4.40
2019-01-15T02:32:47.982Z,4.34
2019-01-15T02:33:47.948Z,4.41
2019-01-15T02:34:47.937Z,4.38
2019-01-15T02:35:47.863Z,4.44
2019-01-15T02:36:47.827Z,4.52
2019-01-15T02:37:47.789Z,4.44
2019-01-15T02:38:47.761Z,4.44
2019-01-15T02:39:47.715Z,4.50
2019-01-15T02:40:47.771Z,4.59
2019-01-15T02:41:47.657Z,4.50
2019-01-15T02:42:47.610Z,4.53
2019-01-15T02:43:47.564Z,4.53
2019-01-15T02:44:47.535Z,4.55
2019-01-15T02:45:47.496Z,4.48
2019-01-15T02:46:47.450Z,4.58
2019-01-15T02:47:47.410Z,4.66
2019-01-15T02:48:47.374Z,4.66
2019-01-15T02:49:47.346Z,4.60
2019-01-15T02:50:47.310Z,4.56
2019-01-15T02:51:47.265Z,4.60
2019-01-15T02:52:47.224Z,4.70
2019-01-15T02:53:47.188Z,4.70
2019-01-15T02:54:47.152Z,4.67
2019-01-15T02:55:47.109Z,4.71
2019-01-15T02:56:47.076Z,4.68
2019-01-15T02:57:47.041Z,4.68
2019-01-15T02:58:46.997Z,4.71
2019-01-15T02:59:46.959Z,4.67
2019-01-15T03:00:46.937Z,4.71
2019-01-15T03:01:46.891Z,4.74
2019-01-15T03:02:46.850Z,4.84
2019-01-15T03:03:46.805Z,4.80
2019-01-15T03:04:46.764Z,4.80
2019-01-15T03:05:46.730Z,4.90
2019-01-15T03:06:46.696Z,4.82
2019-01-15T03:07:46.657Z,4.86
2019-01-15T03:08:46.612Z,4.73
2019-01-15T03:09:46.582Z,4.80
2019-01-15T03:10:46.546Z,4.82
2019-01-15T03:11:46.507Z,4.71
2019-01-15T03:12:54.405Z,4.68
2019-01-15T03:13:46.440Z,4.74
2019-01-15T03:14:46.391Z,4.75
2019-01-15T03:15:46.347Z,4.68
2019-01-15T03:16:46.319Z,4.77
2019-01-15T03:17:46.288Z,4.58
2019-01-15T03:18:47.747Z,4.71
2019-01-15T03:19:46.209Z,4.58
2019-01-15T03:20:54.819Z,4.73
2019-01-15T03:22:50.570Z,4.74
2019-01-15T03:23:50.504Z,4.68
2019-01-15T03:24:50.466Z,4.77
2019-01-15T03:25:50.441Z,4.74
2019-01-15T03:26:50.391Z,4.58
2019-01-15T03:27:50.373Z,4.59
2019-01-15T03:28:50.331Z,4.66
2019-01-15T03:29:50.283Z,4.67
2019-01-15T03:30:50.245Z,4.70
2019-01-15T03:31:50.199Z,4.60
2019-01-15T03:32:50.161Z,4.58
2019-01-15T03:33:50.127Z,4.68
2019-01-15T03:34:50.086Z,4.74
2019-01-15T03:35:50.132Z,4.70
2019-01-15T03:36:50.013Z,4.60
2019-01-15T03:37:50.027Z,4.62
2019-01-15T03:38:49.936Z,4.63
2019-01-15T03:39:49.900Z,4.60
2019-01-15T03:40:49.846Z,4.73
2019-01-15T03:41:49.930Z,4.71
2019-01-15T03:42:49.801Z,4.58
2019-01-15T03:43:49.740Z,4.68
2019-01-15T03:44:49.711Z,4.82
2019-01-15T03:45:49.665Z,4.73
2019-01-15T03:46:49.632Z,4.74
2019-01-15T03:47:49.592Z,4.67
2019-01-15T03:48:49.563Z,4.70
2019-01-15T03:49:49.526Z,4.78
2019-01-15T03:50:49.477Z,4.71
2019-01-15T03:51:49.442Z,4.84
2019-01-15T03:52:49.404Z,4.80
2019-01-15T03:53:49.366Z,4.68
2019-01-15T03:54:49.337Z,4.82
2019-01-15T03:55:49.293Z,4.89
2019-01-15T03:56:49.251Z,4.86
2019-01-15T03:57:49.211Z,4.86
2019-01-15T03:58:49.180Z,4.92
2019-01-15T03:59:49.159Z,4.78
2019-01-15T04:00:49.099Z,4.84
2019-01-15T04:01:49.069Z,4.82
2019-01-15T04:02:49.025Z,4.68
2019-01-15T04:03:49.008Z,4.86
2019-01-15T04:04:48.957Z,4.86
2019-01-15T04:05:48.913Z,4.90
2019-01-15T04:06:48.878Z,4.87
2019-01-15T04:07:48.840Z,4.89
2019-01-15T04:08:48.805Z,4.87
2019-01-15T04:09:48.764Z,4.82
2019-01-15T04:10:48.720Z,4.80
2019-01-15T04:11:48.697Z,4.90
2019-01-15T04:12:48.658Z,4.75
2019-01-15T04:13:48.609Z,4.86
2019-01-15T04:14:48.574Z,4.77
2019-01-15T04:15:48.537Z,4.74
2019-01-15T04:16:48.490Z,4.90
2019-01-15T04:17:48.463Z,4.80
2019-01-15T04:18:48.440Z,4.77
2019-01-15T04:19:48.379Z,4.84
2019-01-15T04:20:48.340Z,4.87
2019-01-15T04:21:48.325Z,4.82
2019-01-15T04:22:48.283Z,4.80
2019-01-15T04:23:48.240Z,4.80
2019-01-15T04:24:48.195Z,4.89
2019-01-15T04:25:48.158Z,4.74
2019-01-15T04:26:48.115Z,4.86
2019-01-15T04:27:48.083Z,4.77
2019-01-15T04:28:48.044Z,4.87
2019-01-15T04:29:48.007Z,4.90
2019-01-15T04:30:47.974Z,4.90
2019-01-15T04:31:47.928Z,4.86
2019-01-15T04:32:47.890Z,4.90
2019-01-15T04:33:47.848Z,4.86
2019-01-15T04:34:49.223Z,4.86
2019-01-15T04:35:47.784Z,4.82
2019-01-15T04:36:47.748Z,4.78
2019-01-15T04:37:47.719Z,4.92
2019-01-15T04:38:47.663Z,4.87
2019-01-15T04:39:47.631Z,4.89
2019-01-15T04:40:47.586Z,4.92
2019-01-15T04:41:47.554Z,4.87
2019-01-15T04:42:47.519Z,4.86
2019-01-15T04:43:47.478Z,4.92
2019-01-15T04:44:47.431Z,4.84
2019-01-15T04:45:47.419Z,4.97
2019-01-15T04:46:47.366Z,4.89
2019-01-15T04:47:47.368Z,4.75
2019-01-15T04:48:47.290Z,4.90
2019-01-15T04:49:47.255Z,4.90
2019-01-15T04:50:47.211Z,4.90
2019-01-15T04:51:47.176Z,4.87
2019-01-15T04:52:47.136Z,4.94
2019-01-15T04:53:47.092Z,4.87
2019-01-15T04:54:47.056Z,4.99
2019-01-15T04:55:47.026Z,4.89
2019-01-15T04:56:46.985Z,4.86
2019-01-15T04:57:46.946Z,4.89
2019-01-15T04:58:46.907Z,4.86
2019-01-15T04:59:46.875Z,4.94
2019-01-15T05:00:46.834Z,4.97
2019-01-15T05:01:46.806Z,4.93
2019-01-15T05:02:46.766Z,4.97
2019-01-15T05:03:46.712Z,5.04
2019-01-15T05:04:46.691Z,5.08
2019-01-15T05:05:46.650Z,5.05
2019-01-15T05:06:46.607Z,5.04
2019-01-15T05:07:46.571Z,4.94
2019-01-15T05:08:46.531Z,5.02
2019-01-15T05:09:46.496Z,5.00
2019-01-15T05:10:46.465Z,4.94
2019-01-15T05:11:46.421Z,4.97
2019-01-15T05:12:46.399Z,4.99
2019-01-15T05:13:46.350Z,4.99
2019-01-15T05:14:46.316Z,4.89
2019-01-15T05:15:46.272Z,4.87
2019-01-15T05:16:46.264Z,5.04
2019-01-15T05:17:46.197Z,4.80
2019-01-15T05:18:46.150Z,4.93
2019-01-15T05:19:46.117Z,4.92
2019-01-15T05:20:46.083Z,4.82
2019-01-15T05:21:46.041Z,4.87
2019-01-15T05:22:46.016Z,4.99
2019-01-15T05:23:45.972Z,4.84
2019-01-15T05:24:45.942Z,4.89
2019-01-15T05:25:45.889Z,4.90
2019-01-15T05:26:45.853Z,4.92
2019-01-15T05:27:45.819Z,4.89
2019-01-15T05:28:45.780Z,4.86
2019-01-15T05:29:45.752Z,4.80
2019-01-15T05:30:45.706Z,4.89
2019-01-15T05:31:45.667Z,4.86
2019-01-15T05:32:45.641Z,4.89
2019-01-15T05:33:45.589Z,4.86
2019-01-15T05:34:45.555Z,4.82
2019-01-15T05:35:45.511Z,4.86
2019-01-15T05:36:45.479Z,4.86
2019-01-15T05:37:45.444Z,4.77
2019-01-15T05:38:45.412Z,4.75
2019-01-15T05:39:45.368Z,4.73
2019-01-15T05:40:45.325Z,4.68
2019-01-15T05:41:45.283Z,4.77
2019-01-15T05:42:45.245Z,4.73
2019-01-15T05:43:45.210Z,4.82
2019-01-15T05:44:45.168Z,4.82
2019-01-15T05:45:45.138Z,4.84
2019-01-15T05:46:45.112Z,4.70
2019-01-15T05:47:45.066Z,4.82
2019-01-15T05:48:45.026Z,4.78
2019-01-15T05:49:44.976Z,4.75
2019-01-15T05:50:44.943Z,4.82
2019-01-15T05:51:44.916Z,4.74
2019-01-15T05:52:44.873Z,4.82
2019-01-15T05:53:44.837Z,4.84
2019-01-15T05:54:44.798Z,4.92
2019-01-15T05:55:44.758Z,4.84
2019-01-15T05:56:44.733Z,4.86
2019-01-15T05:57:44.698Z,4.93
2019-01-15T05:58:44.653Z,4.90
2019-01-15T05:59:44.609Z,4.89
2019-01-15T06:00:44.574Z,4.90
2019-01-15T06:01:44.538Z,4.97
2019-01-15T06:02:44.513Z,4.96
2019-01-15T06:03:44.458Z,4.96
2019-01-15T06:04:44.424Z,4.86
2019-01-15T06:05:44.385Z,4.82
2019-01-15T06:06:44.352Z,4.89
2019-01-15T06:07:44.313Z,4.87
2019-01-15T06:08:44.270Z,4.97
2019-01-15T06:09:44.249Z,4.97
2019-01-15T06:10:44.195Z,5.02
2019-01-15T06:11:44.154Z,4.93
2019-01-15T06:12:44.115Z,4.94
2019-01-15T06:13:44.073Z,4.99
2019-01-15T06:14:44.035Z,4.97
2019-01-15T06:15:44.006Z,4.90
2019-01-15T06:16:43.979Z,4.93
2019-01-15T06:17:43.931Z,4.94
2019-01-15T06:18:43.898Z,4.97
2019-01-15T06:19:43.850Z,4.97
2019-01-15T06:20:43.814Z,4.99
2019-01-15T06:21:43.768Z,4.97
2019-01-15T06:22:43.741Z,4.93
2019-01-15T06:23:43.710Z,4.97
2019-01-15T06:24:43.661Z,5.04
2019-01-15T06:25:43.626Z,5.08
2019-01-15T06:26:43.585Z,5.02
2019-01-15T06:27:43.546Z,5.04
2019-01-15T06:28:43.509Z,5.02
2019-01-15T06:29:43.475Z,5.10
2019-01-15T06:30:43.440Z,5.11
2019-01-15T06:31:43.409Z,5.07
2019-01-15T06:32:43.365Z,5.02
2019-01-15T06:33:43.333Z,5.07
2019-01-15T06:34:43.286Z,5.02
2019-01-15T06:35:43.253Z,5.11
2019-01-15T06:36:43.209Z,5.14
2019-01-15T06:37:43.173Z,5.15
2019-01-15T06:38:43.142Z,5.14
2019-01-15T06:39:43.106Z,5.23
2019-01-15T06:40:43.059Z,5.20
2019-01-15T06:41:43.021Z,5.28
2019-01-15T06:42:42.990Z,5.28
2019-01-15T06:43:49.736Z,5.29
2019-01-15T06:44:42.915Z,5.32
2019-01-15T06:45:42.880Z,5.33
2019-01-15T06:46:42.827Z,5.30
2019-01-15T06:47:42.791Z,5.47
2019-01-15T06:48:42.757Z,5.32
2019-01-15T06:49:42.717Z,5.41
2019-01-15T06:50:42.683Z,5.43
2019-01-15T06:51:42.649Z,5.47
2019-01-15T06:52:42.618Z,5.39
2019-01-15T06:53:42.592Z,5.47
2019-01-15T06:54:42.557Z,5.39
2019-01-15T06:55:42.505Z,5.50
2019-01-15T06:56:42.467Z,5.43
2019-01-15T06:57:42.423Z,5.39
2019-01-15T06:58:42.388Z,5.44
2019-01-15T06:59:42.349Z,5.44
2019-01-15T07:00:42.317Z,5.39
2019-01-15T07:01:42.272Z,5.41
2019-01-15T07:02:42.237Z,5.41
2019-01-15T07:03:42.192Z,5.41
2019-01-15T07:04:43.993Z,5.39
2019-01-15T07:05:42.128Z,5.48
2019-01-15T07:06:42.083Z,5.53
2019-01-15T07:07:42.075Z,5.38
2019-01-15T07:08:42.011Z,5.46
2019-01-15T07:09:41.981Z,5.43
2019-01-15T07:10:41.938Z,5.44
2019-01-15T07:11:41.897Z,5.43
2019-01-15T07:12:41.858Z,5.41
2019-01-15T07:13:41.829Z,5.47
2019-01-15T07:14:41.785Z,5.43
2019-01-15T07:15:41.747Z,5.43
2019-01-15T07:16:41.721Z,5.48
2019-01-15T07:17:41.676Z,5.39
2019-01-15T07:18:41.629Z,5.38
2019-01-15T07:19:41.603Z,5.36
2019-01-15T07:20:41.561Z,5.41
2019-01-15T07:21:41.519Z,5.38
2019-01-15T07:22:41.499Z,5.43
2019-01-15T07:23:41.462Z,5.39
2019-01-15T07:24:41.406Z,5.53
2019-01-15T07:25:41.377Z,5.53
2019-01-15T07:26:41.332Z,5.48
2019-01-15T07:27:49.946Z,5.48
2019-01-15T07:29:45.708Z,5.46
2019-01-15T07:30:45.648Z,5.51
2019-01-15T07:31:45.617Z,5.50
2019-01-15T07:32:45.572Z,5.48
2019-01-15T07:33:45.533Z,5.44
2019-01-15T07:34:45.498Z,5.56
2019-01-15T07:35:45.457Z,5.51
2019-01-15T07:36:45.432Z,5.46
2019-01-15T07:37:45.394Z,5.51
2019-01-15T07:38:45.352Z,5.53
2019-01-15T07:39:45.315Z,5.53
2019-01-15T07:40:45.274Z,5.59
2019-01-15T07:41:45.225Z,5.50
2019-01-15T07:42:45.192Z,5.66
2019-01-15T07:43:45.161Z,5.62
2019-01-15T07:44:45.110Z,5.59
2019-01-15T07:45:45.150Z,5.48
2019-01-15T07:46:45.044Z,5.51
2019-01-15T07:47:45.007Z,5.65
2019-01-15T07:48:44.963Z,5.59
2019-01-15T07:49:44.938Z,5.65
2019-01-15T07:50:44.907Z,5.59
2019-01-15T07:51:44.858Z,5.54
2019-01-15T07:52:44.844Z,5.61
2019-01-15T07:53:44.784Z,5.64
2019-01-15T07:54:44.752Z,5.68
2019-01-15T07:55:44.700Z,5.72
2019-01-15T07:56:44.680Z,5.71
2019-01-15T07:57:44.639Z,5.66
2019-01-15T07:58:44.601Z,5.73
2019-01-15T07:59:44.563Z,5.66
2019-01-15T08:00:44.526Z,5.71
2019-01-15T08:01:44.485Z,5.72
2019-01-15T08:02:44.449Z,5.73
2019-01-15T08:03:44.419Z,5.75
2019-01-15T08:04:44.380Z,5.76
2019-01-15T08:05:44.334Z,5.86
2019-01-15T08:06:44.313Z,5.71
2019-01-15T08:07:44.268Z,5.72
2019-01-15T08:08:44.225Z,5.82
2019-01-15T08:09:44.191Z,5.73
2019-01-15T08:10:44.145Z,5.76
2019-01-15T08:11:44.116Z,5.76
2019-01-15T08:12:44.081Z,5.86
2019-01-15T08:13:44.045Z,5.84
2019-01-15T08:14:44.004Z,5.90
2019-01-15T08:15:43.965Z,5.86
2019-01-15T08:16:43.926Z,5.82
2019-01-15T08:17:43.885Z,5.89
2019-01-15T08:18:43.850Z,5.86
2019-01-15T08:19:43.821Z,5.84
2019-01-15T08:20:43.776Z,5.91
2019-01-15T08:21:43.737Z,5.98
2019-01-15T08:22:43.708Z,5.91
2019-01-15T08:23:43.660Z,5.91
2019-01-15T08:24:43.621Z,5.94
2019-01-15T08:25:43.591Z,5.93
2019-01-15T08:26:43.556Z,5.98
2019-01-15T08:27:43.515Z,5.90
2019-01-15T08:28:43.479Z,5.97
2019-01-15T08:29:43.440Z,5.94
2019-01-15T08:30:43.415Z,6.08
2019-01-15T08:31:43.365Z,6.01
2019-01-15T08:32:43.326Z,5.99
2019-01-15T08:33:43.300Z,6.04
2019-01-15T08:34:43.261Z,6.05
2019-01-15T08:35:43.231Z,6.01
2019-01-15T08:36:43.187Z,6.02
2019-01-15T08:37:43.142Z,6.07
2019-01-15T08:38:43.110Z,6.04
2019-01-15T08:39:43.066Z,6.02
2019-01-15T08:40:43.036Z,6.04
2019-01-15T08:41:43.012Z,5.99
2019-01-15T08:42:42.975Z,6.01
2019-01-15T08:43:42.920Z,6.08
2019-01-15T08:44:42.888Z,6.05
2019-01-15T08:45:42.853Z,6.01
2019-01-15T08:46:42.817Z,5.99
2019-01-15T08:47:42.765Z,6.05
2019-01-15T08:48:42.752Z,6.14
2019-01-15T08:49:42.701Z,6.12
2019-01-15T08:50:42.666Z,6.09
2019-01-15T08:51:42.648Z,6.22
2019-01-15T08:52:42.591Z,6.24
2019-01-15T08:53:42.546Z,6.28
2019-01-15T08:54:42.522Z,6.33
2019-01-15T08:55:42.497Z,6.39
2019-01-15T08:56:42.438Z,6.22
2019-01-15T08:57:42.399Z,6.30
2019-01-15T08:58:42.373Z,6.46
2019-01-15T08:59:42.334Z,6.30
2019-01-15T09:00:42.296Z,6.51
2019-01-15T09:01:42.267Z,6.48
2019-01-15T09:02:42.234Z,6.48
2019-01-15T09:03:42.182Z,6.63
2019-01-15T09:04:42.147Z,6.67
2019-01-15T09:05:42.206Z,6.75
2019-01-15T09:06:42.082Z,6.64
2019-01-15T09:07:42.036Z,6.63
2019-01-15T09:08:41.999Z,6.64
2019-01-15T09:09:41.969Z,6.63
2019-01-15T09:10:41.937Z,6.72
2019-01-15T09:11:41.887Z,6.70
2019-01-15T09:12:41.849Z,6.77
2019-01-15T09:13:41.818Z,6.75
2019-01-15T09:14:41.777Z,6.84
2019-01-15T09:15:41.748Z,6.84
2019-01-15T09:16:41.710Z,6.89
2019-01-15T09:17:41.671Z,6.69
2019-01-15T09:18:41.629Z,6.81
2019-01-15T09:19:41.588Z,6.85
2019-01-15T09:20:41.553Z,6.88
2019-01-15T09:21:41.538Z,6.85
2019-01-15T09:22:41.492Z,6.97
2019-01-15T09:23:41.449Z,6.97
2019-01-15T09:24:41.420Z,6.92
2019-01-15T09:25:41.374Z,6.99
2019-01-15T09:26:41.338Z,7.03
2019-01-15T09:27:41.310Z,7.10
2019-01-15T09:28:41.285Z,7.25
2019-01-15T09:29:41.233Z,7.24
2019-01-15T09:30:41.199Z,7.21
2019-01-15T09:31:41.164Z,7.32
2019-01-15T09:32:41.120Z,7.36
2019-01-15T09:33:41.105Z,7.38
2019-01-15T09:34:41.059Z,7.51
2019-01-15T09:35:41.023Z,7.47
2019-01-15T09:36:40.985Z,7.50
2019-01-15T09:37:40.943Z,7.38
2019-01-15T09:38:40.900Z,7.45
2019-01-15T09:39:40.869Z,7.48
2019-01-15T09:40:40.849Z,7.51
2019-01-15T09:41:40.800Z,7.48
2019-01-15T09:42:40.756Z,7.53
2019-01-15T09:43:40.718Z,7.48
2019-01-15T09:44:40.685Z,7.60
2019-01-15T09:45:40.650Z,7.58
2019-01-15T09:46:40.624Z,7.60
2019-01-15T09:47:40.575Z,7.66
2019-01-15T09:48:40.534Z,7.60
2019-01-15T09:49:40.508Z,7.61
2019-01-15T09:50:40.476Z,7.70
2019-01-15T09:51:40.441Z,7.58
2019-01-15T09:52:40.416Z,7.61
2019-01-15T09:53:40.369Z,7.73
2019-01-15T09:54:40.331Z,7.73
2019-01-15T09:55:40.296Z,7.87
2019-01-15T09:56:40.496Z,7.76
2019-01-15T09:57:40.261Z,7.87
2019-01-15T09:58:40.180Z,7.85
2019-01-15T09:59:40.166Z,7.90
2019-01-15T10:00:40.152Z,7.90
2019-01-15T10:01:40.090Z,7.79
2019-01-15T10:02:40.050Z,7.85
2019-01-15T10:03:40.010Z,7.79
2019-01-15T10:04:39.994Z,7.95
2019-01-15T10:05:39.942Z,7.87
2019-01-15T10:06:39.917Z,7.87
2019-01-15T10:07:39.869Z,7.91
2019-01-15T10:08:39.850Z,7.93
2019-01-15T10:09:39.798Z,7.76
2019-01-15T10:10:39.762Z,7.93
2019-01-15T10:11:39.731Z,7.87
2019-01-15T10:12:39.699Z,7.95
2019-01-15T10:13:39.661Z,7.97
2019-01-15T10:14:41.370Z,8.08
2019-01-15T10:15:39.598Z,8.03
2019-01-15T10:16:39.551Z,8.08
2019-01-15T10:17:39.511Z,8.05
2019-01-15T10:18:39.476Z,8.24
2019-01-15T10:19:39.446Z,8.26
2019-01-15T10:20:39.405Z,8.30
2019-01-15T10:21:39.868Z,8.19
2019-01-15T10:22:39.337Z,8.42
2019-01-15T10:23:39.307Z,8.34
2019-01-15T10:24:39.272Z,8.23
2019-01-15T10:25:39.227Z,8.24
2019-01-15T10:26:39.208Z,8.34
2019-01-15T10:27:39.157Z,8.33
2019-01-15T10:28:39.129Z,8.42
2019-01-15T10:29:39.091Z,8.24
2019-01-15T10:30:39.043Z,8.33
2019-01-15T10:31:39.048Z,8.41
2019-01-15T10:32:38.982Z,8.37
2019-01-15T10:33:38.942Z,8.48
2019-01-15T10:34:38.919Z,8.67
2019-01-15T10:35:38.871Z,8.52
2019-01-15T10:36:38.841Z,8.48
2019-01-15T10:37:38.811Z,8.49
2019-01-15T10:38:38.779Z,8.45
2019-01-15T10:39:38.738Z,8.52
2019-01-15T10:40:38.698Z,8.51
2019-01-15T10:41:38.669Z,8.58
2019-01-15T10:42:38.632Z,8.60
2019-01-15T10:43:38.596Z,8.70
2019-01-15T10:44:38.556Z,8.66
2019-01-15T10:45:38.524Z,8.66
2019-01-15T10:46:38.492Z,8.58
2019-01-15T10:47:38.458Z,8.45
2019-01-15T10:48:38.428Z,8.31
2019-01-15T10:49:38.403Z,8.42
2019-01-15T10:50:38.348Z,8.56
2019-01-15T10:51:38.310Z,8.58
2019-01-15T10:52:38.288Z,8.46
2019-01-15T10:53:38.270Z,8.53
2019-01-15T10:54:38.208Z,8.60
2019-01-15T10:55:38.183Z,8.52
2019-01-15T10:56:38.139Z,8.71
2019-01-15T10:57:38.103Z,8.76
2019-01-15T10:58:38.069Z,8.69
2019-01-15T10:59:38.057Z,8.69
2019-01-15T11:00:38.002Z,8.67
2019-01-15T11:01:37.968Z,8.58
2019-01-15T11:02:37.934Z,8.58
2019-01-15T11:03:37.897Z,8.61
2019-01-15T11:04:37.863Z,8.69
2019-01-15T11:05:37.828Z,8.58
2019-01-15T11:06:37.784Z,8.53
2019-01-15T11:07:37.757Z,8.58
2019-01-15T11:08:37.776Z,8.76
2019-01-15T11:09:37.678Z,8.64
2019-01-15T11:10:37.652Z,8.79
2019-01-15T11:11:37.618Z,8.67
2019-01-15T11:12:37.578Z,8.73
2019-01-15T11:13:37.544Z,8.73
2019-01-15T11:14:37.503Z,8.87
2019-01-15T11:15:43.168Z,8.70
2019-01-15T11:16:37.444Z,8.71
2019-01-15T11:17:37.399Z,8.70
2019-01-15T11:18:37.363Z,8.67
2019-01-15T11:19:37.338Z,8.71
2019-01-15T11:20:37.294Z,8.73
2019-01-15T11:21:37.269Z,8.69
2019-01-15T11:22:37.219Z,8.58
2019-01-15T11:23:37.195Z,8.73
2019-01-15T11:24:37.159Z,8.56
2019-01-15T11:25:37.115Z,8.45
2019-01-15T11:26:37.085Z,8.45
2019-01-15T11:27:37.046Z,8.48
2019-01-15T11:28:37.011Z,8.60
2019-01-15T11:29:36.989Z,8.60
2019-01-15T11:30:36.943Z,8.66
2019-01-15T11:31:36.911Z,8.53
2019-01-15T11:32:36.889Z,8.53
2019-01-15T11:33:36.840Z,8.61
2019-01-15T11:34:36.805Z,8.60
2019-01-15T11:35:36.761Z,8.56
2019-01-15T11:36:45.383Z,8.60
2019-01-15T11:38:41.149Z,8.48
2019-01-15T11:39:41.086Z,8.56
2019-01-15T11:40:41.050Z,8.42
2019-01-15T11:41:41.019Z,8.53
2019-01-15T11:42:40.992Z,8.64
2019-01-15T11:43:40.955Z,8.56
2019-01-15T11:44:40.911Z,8.42
2019-01-15T11:45:40.875Z,8.55
2019-01-15T11:46:40.836Z,8.41
2019-01-15T11:47:40.805Z,8.44
2019-01-15T11:48:40.776Z,8.67
2019-01-15T11:49:40.742Z,8.64
2019-01-15T11:50:40.711Z,8.61
2019-01-15T11:51:40.667Z,8.56
2019-01-15T11:52:40.641Z,8.71
2019-01-15T11:53:40.620Z,8.56
2019-01-15T11:54:40.567Z,8.45
2019-01-15T11:55:40.540Z,8.37
2019-01-15T11:56:40.487Z,8.33
2019-01-15T11:57:40.455Z,8.58
2019-01-15T11:58:40.421Z,8.46
2019-01-15T11:59:40.381Z,8.48
2019-01-15T12:00:40.351Z,8.46
2019-01-15T12:01:40.319Z,8.49
2019-01-15T12:02:40.272Z,8.64
2019-01-15T12:03:40.242Z,8.64
2019-01-15T12:04:40.207Z,8.56
2019-01-15T12:05:40.173Z,8.64
2019-01-15T12:06:40.135Z,8.60
2019-01-15T12:07:40.096Z,8.55
2019-01-15T12:08:40.056Z,8.60
2019-01-15T12:09:40.025Z,8.58
2019-01-15T12:10:48.681Z,8.61
2019-01-15T12:12:44.409Z,8.45
2019-01-15T12:13:44.337Z,8.52
2019-01-15T12:14:44.307Z,8.45
2019-01-15T12:15:44.298Z,8.37
2019-01-15T12:16:44.248Z,8.34
2019-01-15T12:17:44.226Z,8.38
2019-01-15T12:18:44.173Z,8.36
2019-01-15T12:19:44.128Z,8.36
2019-01-15T12:20:44.103Z,8.34
2019-01-15T12:21:44.057Z,8.34
2019-01-15T12:22:44.023Z,8.37
2019-01-15T12:23:43.987Z,8.42
2019-01-15T12:24:43.948Z,8.38
2019-01-15T12:25:43.921Z,8.38
2019-01-15T12:26:43.896Z,8.33
2019-01-15T12:27:43.847Z,8.37
2019-01-15T12:28:43.821Z,8.34
2019-01-15T12:29:43.783Z,8.44
2019-01-15T12:30:43.747Z,8.45
2019-01-15T12:31:43.696Z,8.38
2019-01-15T12:32:43.665Z,8.44
2019-01-15T12:33:43.641Z,8.42
2019-01-15T12:34:43.603Z,8.51
2019-01-15T12:35:43.563Z,8.37
2019-01-15T12:36:43.527Z,8.27
2019-01-15T12:37:43.483Z,8.38
2019-01-15T12:38:43.449Z,8.38
2019-01-15T12:39:43.430Z,8.41
2019-01-15T12:40:43.378Z,8.27
2019-01-15T12:41:43.350Z,8.38
2019-01-15T12:42:43.307Z,8.34
2019-01-15T12:43:43.275Z,8.38
2019-01-15T12:44:43.238Z,8.38
2019-01-15T12:45:43.209Z,8.38
2019-01-15T12:46:43.168Z,8.34
2019-01-15T12:47:43.144Z,8.20
2019-01-15T12:48:43.105Z,8.27
2019-01-15T12:49:43.067Z,8.38
2019-01-15T12:50:43.038Z,8.28
2019-01-15T12:51:42.990Z,8.36
2019-01-15T12:52:42.961Z,8.26
2019-01-15T12:53:42.914Z,8.26
2019-01-15T12:54:42.882Z,8.30
2019-01-15T12:55:42.847Z,8.31
2019-01-15T12:56:42.822Z,8.26
2019-01-15T12:57:42.774Z,8.24
2019-01-15T12:58:42.745Z,8.18
2019-01-15T12:59:42.710Z,8.30
2019-01-15T13:00:42.676Z,8.34
2019-01-15T13:01:42.630Z,8.38
2019-01-15T13:02:42.604Z,8.41
2019-01-15T13:03:42.563Z,8.41
2019-01-15T13:04:42.530Z,8.37
2019-01-15T13:05:42.495Z,8.38
2019-01-15T13:06:42.455Z,8.36
2019-01-15T13:07:42.428Z,8.42
2019-01-15T13:08:42.395Z,8.33
2019-01-15T13:09:42.350Z,8.41
2019-01-15T13:10:42.315Z,8.41
2019-01-15T13:11:42.271Z,8.38
2019-01-15T13:12:42.240Z,8.45
2019-01-15T13:13:42.234Z,8.37
2019-01-15T13:14:42.174Z,8.34
2019-01-15T13:15:42.139Z,8.38
2019-01-15T13:16:42.105Z,8.36
2019-01-15T13:17:42.065Z,8.34
2019-01-15T13:18:42.021Z,8.36
2019-01-15T13:19:41.996Z,8.36
2019-01-15T13:20:41.961Z,8.33
2019-01-15T13:21:41.921Z,8.27
2019-01-15T13:22:41.893Z,8.23